CheckWX is a tool to help pilots better visualize weather data.  It is not intended as a substitute for an official pre-flight weather briefing.

07:37:56 UTC

KAWG METAR
Washington Municipal Airport
Washington, Iowa, USA
Current

43 mins ago

KAWG 210655Z AUTO 11017KT 10SM OVC015 09/09 A3002 RMK AO2
Observed
May-21 @ 06:55 UTC
Wind
  • 110° at 17 KTS
Visibility
10 SM
Flight Rules
MVFR
Cloud Levels
  • Overcast at 1,500' AGL
Temperature
C / 48°F
Dewpoint
C / 48°F
Humidity
100%
Altimeter
30.02" Hg
Pressure
1016.62 hPa
Previous

1 hour ago

KAWG 210635Z AUTO 10015G20KT 10SM SCT016 OVC070 10/10 A3003 RMK AO2
Observed
May-21 @ 06:35 UTC
Wind
  • 100° at 15 KTS
  • Gusting to 20 KTS
Visibility
10 SM
Flight Rules
VFR
Cloud Levels
  • Scattered at 1,600' AGL
  • Overcast at 7,000' AGL
Temperature
10°C / 50°F
Dewpoint
10°C / 50°F
Humidity
100%
Altimeter
30.03" Hg
Pressure
1016.92 hPa
Previous

1 hour ago

KAWG 210615Z AUTO 11014G20KT 10SM FEW013 OVC075 09/09 A3004 RMK AO2
Observed
May-21 @ 06:15 UTC
Wind
  • 110° at 14 KTS
  • Gusting to 20 KTS
Visibility
10 SM
Flight Rules
VFR
Cloud Levels
  • Few at 1,300' AGL
  • Overcast at 7,500' AGL
Temperature
C / 48°F
Dewpoint
C / 48°F
Humidity
100%
Altimeter
30.04" Hg
Pressure
1017.32 hPa